Terminal Aerodrome Forecast
Issued by NWS

Home | Current Version | Previous Version | Text Only | Print | Product List | Glossary On
Versions: 1 2 3 4 5 6 7 8 9 10 11 12 13
000
FTUS41 KAKQ 261120
TAFPHF
TAF
KPHF 261120Z 2612/2712 21010KT P6SM SKC
     FM261600 20011G17KT P6SM SCT050 BKN250
     FM262300 19011KT P6SM BKN200=

USA.gov is the U.S. government's official web portal to all federal, state and local government web resources and services.